sensor_id;sensor_type;location;lat;lon;timestamp;temperature;humidity
38239;DHT22;24035;48.900;9.188;2023-07-28T00:02:05;16.50;1.00
38239;DHT22;24035;48.900;9.188;2023-07-28T00:04:33;16.50;1.00
38239;DHT22;24035;48.900;9.188;2023-07-28T00:06:59;16.50;1.00
38239;DHT22;24035;48.900;9.188;2023-07-28T00:09:25;16.50;1.00
38239;DHT22;24035;48.900;9.188;2023-07-28T00:11:51;16.50;1.00
38239;DHT22;24035;48.900;9.188;2023-07-28T00:14:17;16.50;1.00
38239;DHT22;24035;48.900;9.188;2023-07-28T00:16:43;16.50;1.00
38239;DHT22;24035;48.900;9.188;2023-07-28T00:19:09;16.60;1.00
38239;DHT22;24035;48.900;9.188;2023-07-28T00:21:34;16.60;1.00
38239;DHT22;24035;48.900;9.188;2023-07-28T00:24:00;16.60;1.00
38239;DHT22;24035;48.900;9.188;2023-07-28T00:26:26;16.70;1.00
38239;DHT22;24035;48.900;9.188;2023-07-28T00:28:52;16.70;99.90
38239;DHT22;24035;48.900;9.188;2023-07-28T00:31:17;16.70;99.90
38239;DHT22;24035;48.900;9.188;2023-07-28T00:33:43;16.80;99.90
38239;DHT22;24035;48.900;9.188;2023-07-28T00:36:08;16.80;1.00
38239;DHT22;24035;48.900;9.188;2023-07-28T00:38:34;16.70;1.00
38239;DHT22;24035;48.900;9.188;2023-07-28T00:41:00;16.70;99.90
38239;DHT22;24035;48.900;9.188;2023-07-28T00:43:26;16.60;99.90
38239;DHT22;24035;48.900;9.188;2023-07-28T00:45:51;16.60;1.00
38239;DHT22;24035;48.900;9.188;2023-07-28T00:48:18;16.60;1.00
38239;DHT22;24035;48.900;9.188;2023-07-28T00:50:48;16.50;99.90
38239;DHT22;24035;48.900;9.188;2023-07-28T00:53:15;16.50;99.90
38239;DHT22;24035;48.900;9.188;2023-07-28T00:55:41;16.50;99.90
38239;DHT22;24035;48.900;9.188;2023-07-28T00:58:08;16.40;1.00
38239;DHT22;24035;48.900;9.188;2023-07-28T01:00:34;16.50;1.00
38239;DHT22;24035;48.900;9.188;2023-07-28T01:03:00;16.60;1.00
38239;DHT22;24035;48.900;9.188;2023-07-28T01:05:31;16.70;1.00
38239;DHT22;24035;48.900;9.188;2023-07-28T01:08:07;16.60;1.00
38239;DHT22;24035;48.900;9.188;2023-07-28T01:10:35;16.60;99.90
38239;DHT22;24035;48.900;9.188;2023-07-28T01:13:01;16.50;99.90
38239;DHT22;24035;48.900;9.188;2023-07-28T01:15:27;16.40;99.90
38239;DHT22;24035;48.900;9.188;2023-07-28T01:17:53;16.40;1.00
38239;DHT22;24035;48.900;9.188;2023-07-28T01:20:19;16.30;99.90
38239;DHT22;24035;48.900;9.188;2023-07-28T01:23:07;16.30;99.90
38239;DHT22;24035;48.900;9.188;2023-07-28T01:25:43;16.20;99.90
38239;DHT22;24035;48.900;9.188;2023-07-28T01:28:13;16.20;99.90
38239;DHT22;24035;48.900;9.188;2023-07-28T01:30:39;16.10;99.90
38239;DHT22;24035;48.900;9.188;2023-07-28T01:33:08;16.00;99.90
38239;DHT22;24035;48.900;9.188;2023-07-28T01:35:36;15.90;99.90
38239;DHT22;24035;48.900;9.188;2023-07-28T01:38:03;15.90;99.90
38239;DHT22;24035;48.900;9.188;2023-07-28T01:40:28;15.90;1.00
38239;DHT22;24035;48.900;9.188;2023-07-28T01:42:54;15.90;1.00
38239;DHT22;24035;48.900;9.188;2023-07-28T01:45:20;15.90;99.90
38239;DHT22;24035;48.900;9.188;2023-07-28T01:47:45;15.90;99.90
38239;DHT22;24035;48.900;9.188;2023-07-28T01:50:11;15.90;99.90
38239;DHT22;24035;48.900;9.188;2023-07-28T01:52:37;15.80;99.90
38239;DHT22;24035;48.900;9.188;2023-07-28T01:55:02;15.80;99.90
38239;DHT22;24035;48.900;9.188;2023-07-28T01:57:33;15.80;99.90
38239;DHT22;24035;48.900;9.188;2023-07-28T01:59:59;15.90;99.90
38239;DHT22;24035;48.900;9.188;2023-07-28T02:02:25;15.90;99.90
38239;DHT22;24035;48.900;9.188;2023-07-28T02:04:51;15.90;99.90
38239;DHT22;24035;48.900;9.188;2023-07-28T02:07:16;16.00;1.00
38239;DHT22;24035;48.900;9.188;2023-07-28T02:09:42;16.10;1.00
38239;DHT22;24035;48.900;9.188;2023-07-28T02:12:08;16.20;99.90
38239;DHT22;24035;48.900;9.188;2023-07-28T02:14:34;16.20;1.00
38239;DHT22;24035;48.900;9.188;2023-07-28T02:16:59;16.20;1.00
38239;DHT22;24035;48.900;9.188;2023-07-28T02:19:25;16.20;99.90
38239;DHT22;24035;48.900;9.188;2023-07-28T02:21:51;16.20;99.90
38239;DHT22;24035;48.900;9.188;2023-07-28T02:24:16;16.20;1.00
38239;DHT22;24035;48.900;9.188;2023-07-28T02:26:42;16.20;95.50
38239;DHT22;24035;48.900;9.188;2023-07-28T02:29:08;16.10;11.70
38239;DHT22;24035;48.900;9.188;2023-07-28T02:31:33;16.20;99.90
38239;DHT22;24035;48.900;9.188;2023-07-28T02:34:00;16.20;99.90
38239;DHT22;24035;48.900;9.188;2023-07-28T02:36:25;16.30;99.90
38239;DHT22;24035;48.900;9.188;2023-07-28T02:38:51;16.30;1.00
38239;DHT22;24035;48.900;9.188;2023-07-28T02:41:17;16.20;1.00
38239;DHT22;24035;48.900;9.188;2023-07-28T02:43:42;16.20;73.40
38239;DHT22;24035;48.900;9.188;2023-07-28T02:46:08;16.20;99.90
38239;DHT22;24035;48.900;9.188;2023-07-28T02:48:34;16.20;99.90
38239;DHT22;24035;48.900;9.188;2023-07-28T02:50:59;16.20;1.00
38239;DHT22;24035;48.900;9.188;2023-07-28T02:53:25;16.20;1.00
38239;DHT22;24035;48.900;9.188;2023-07-28T02:55:51;16.30;1.00
38239;DHT22;24035;48.900;9.188;2023-07-28T02:58:17;16.30;99.90
38239;DHT22;24035;48.900;9.188;2023-07-28T03:00:43;16.30;99.90
38239;DHT22;24035;48.900;9.188;2023-07-28T03:03:10;16.30;99.90
38239;DHT22;24035;48.900;9.188;2023-07-28T03:05:40;16.30;1.00
38239;DHT22;24035;48.900;9.188;2023-07-28T03:08:06;16.30;99.90
38239;DHT22;24035;48.900;9.188;2023-07-28T03:10:32;16.30;99.90
38239;DHT22;24035;48.900;9.188;2023-07-28T03:12:58;16.20;99.90
38239;DHT22;24035;48.900;9.188;2023-07-28T03:15:24;16.20;1.00
38239;DHT22;24035;48.900;9.188;2023-07-28T03:17:50;16.20;1.00
38239;DHT22;24035;48.900;9.188;2023-07-28T03:20:16;16.20;1.00
38239;DHT22;24035;48.900;9.188;2023-07-28T03:22:42;16.20;1.00
38239;DHT22;24035;48.900;9.188;2023-07-28T03:25:08;16.20;1.00
38239;DHT22;24035;48.900;9.188;2023-07-28T03:27:34;16.20;1.00
38239;DHT22;24035;48.900;9.188;2023-07-28T03:30:00;16.20;1.00
38239;DHT22;24035;48.900;9.188;2023-07-28T03:32:26;16.20;1.00
38239;DHT22;24035;48.900;9.188;2023-07-28T03:34:51;16.20;1.00
38239;DHT22;24035;48.900;9.188;2023-07-28T03:37:17;16.20;1.00
38239;DHT22;24035;48.900;9.188;2023-07-28T03:39:43;16.30;1.00
38239;DHT22;24035;48.900;9.188;2023-07-28T03:42:09;16.30;1.00
38239;DHT22;24035;48.900;9.188;2023-07-28T03:44:35;16.30;99.90
38239;DHT22;24035;48.900;9.188;2023-07-28T03:47:03;16.30;99.90
38239;DHT22;24035;48.900;9.188;2023-07-28T03:49:30;16.30;99.90
38239;DHT22;24035;48.900;9.188;2023-07-28T03:51:55;16.20;1.00
38239;DHT22;24035;48.900;9.188;2023-07-28T03:54:21;16.20;1.00
38239;DHT22;24035;48.900;9.188;2023-07-28T03:56:47;16.20;1.00
38239;DHT22;24035;48.900;9.188;2023-07-28T03:59:13;16.20;25.30
38239;DHT22;24035;48.900;9.188;2023-07-28T04:01:38;16.30;99.90
38239;DHT22;24035;48.900;9.188;2023-07-28T04:04:04;16.30;99.90
38239;DHT22;24035;48.900;9.188;2023-07-28T04:06:47;16.30;99.90
38239;DHT22;24035;48.900;9.188;2023-07-28T04:09:15;16.30;99.90
38239;DHT22;24035;48.900;9.188;2023-07-28T04:11:42;16.40;99.90
38239;DHT22;24035;48.900;9.188;2023-07-28T04:14:08;16.40;99.90
38239;DHT22;24035;48.900;9.188;2023-07-28T04:16:33;16.40;46.40
38239;DHT22;24035;48.900;9.188;2023-07-28T04:19:00;16.40;1.00
38239;DHT22;24035;48.900;9.188;2023-07-28T04:21:26;16.40;1.00
38239;DHT22;24035;48.900;9.188;2023-07-28T04:23:51;16.40;1.00
38239;DHT22;24035;48.900;9.188;2023-07-28T04:26:18;16.40;99.90
38239;DHT22;24035;48.900;9.188;2023-07-28T04:28:44;16.40;99.90
38239;DHT22;24035;48.900;9.188;2023-07-28T04:31:10;16.50;99.90
38239;DHT22;24035;48.900;9.188;2023-07-28T04:33:36;16.50;99.90
38239;DHT22;24035;48.900;9.188;2023-07-28T04:36:05;16.50;99.90
38239;DHT22;24035;48.900;9.188;2023-07-28T04:38:30;16.60;99.90
38239;DHT22;24035;48.900;9.188;2023-07-28T04:40:56;16.60;99.90
38239;DHT22;24035;48.900;9.188;2023-07-28T04:43:22;16.60;99.90
38239;DHT22;24035;48.900;9.188;2023-07-28T04:45:48;16.60;99.90
38239;DHT22;24035;48.900;9.188;2023-07-28T04:48:14;16.70;99.90
38239;DHT22;24035;48.900;9.188;2023-07-28T04:50:39;16.70;99.90
38239;DHT22;24035;48.900;9.188;2023-07-28T04:53:06;16.70;99.90
38239;DHT22;24035;48.900;9.188;2023-07-28T04:55:32;16.70;99.90
38239;DHT22;24035;48.900;9.188;2023-07-28T04:57:57;16.70;99.90
38239;DHT22;24035;48.900;9.188;2023-07-28T05:00:23;16.70;1.00
38239;DHT22;24035;48.900;9.188;2023-07-28T05:02:49;16.70;1.00
38239;DHT22;24035;48.900;9.188;2023-07-28T05:05:16;16.80;1.00
38239;DHT22;24035;48.900;9.188;2023-07-28T05:07:41;16.80;1.00
38239;DHT22;24035;48.900;9.188;2023-07-28T05:10:08;16.80;1.00
38239;DHT22;24035;48.900;9.188;2023-07-28T05:12:33;16.90;1.00
38239;DHT22;24035;48.900;9.188;2023-07-28T05:14:59;16.90;1.00
38239;DHT22;24035;48.900;9.188;2023-07-28T05:17:25;16.90;1.00
38239;DHT22;24035;48.900;9.188;2023-07-28T05:19:51;17.00;1.00
38239;DHT22;24035;48.900;9.188;2023-07-28T05:22:17;17.00;1.00
38239;DHT22;24035;48.900;9.188;2023-07-28T05:24:43;17.10;12.00
38239;DHT22;24035;48.900;9.188;2023-07-28T05:27:12;17.10;3.10
38239;DHT22;24035;48.900;9.188;2023-07-28T05:29:38;17.10;1.00
38239;DHT22;24035;48.900;9.188;2023-07-28T05:32:04;17.00;1.00
38239;DHT22;24035;48.900;9.188;2023-07-28T05:34:30;17.00;52.70
38239;DHT22;24035;48.900;9.188;2023-07-28T05:36:55;17.10;99.90
38239;DHT22;24035;48.900;9.188;2023-07-28T05:39:22;17.20;99.90
38239;DHT22;24035;48.900;9.188;2023-07-28T05:41:47;17.20;99.90
38239;DHT22;24035;48.900;9.188;2023-07-28T05:44:13;17.40;1.00
38239;DHT22;24035;48.900;9.188;2023-07-28T05:46:39;17.30;1.00
38239;DHT22;24035;48.900;9.188;2023-07-28T05:49:05;17.40;1.00
38239;DHT22;24035;48.900;9.188;2023-07-28T05:51:31;17.40;99.90
38239;DHT22;24035;48.900;9.188;2023-07-28T05:53:57;17.40;99.90
38239;DHT22;24035;48.900;9.188;2023-07-28T05:56:23;17.40;1.00
38239;DHT22;24035;48.900;9.188;2023-07-28T05:58:49;17.50;1.00
38239;DHT22;24035;48.900;9.188;2023-07-28T06:01:16;17.60;1.00
38239;DHT22;24035;48.900;9.188;2023-07-28T06:03:42;17.50;1.00
38239;DHT22;24035;48.900;9.188;2023-07-28T06:06:08;17.50;1.00
38239;DHT22;24035;48.900;9.188;2023-07-28T06:08:34;17.50;99.90
38239;DHT22;24035;48.900;9.188;2023-07-28T06:11:03;17.50;99.90
38239;DHT22;24035;48.900;9.188;2023-07-28T06:13:31;17.50;99.90
38239;DHT22;24035;48.900;9.188;2023-07-28T06:15:57;17.50;99.90
38239;DHT22;24035;48.900;9.188;2023-07-28T06:18:24;17.50;99.90
38239;DHT22;24035;48.900;9.188;2023-07-28T06:20:50;17.60;1.00
38239;DHT22;24035;48.900;9.188;2023-07-28T06:23:16;17.70;1.00
38239;DHT22;24035;48.900;9.188;2023-07-28T06:25:42;17.70;1.00
38239;DHT22;24035;48.900;9.188;2023-07-28T06:28:12;17.70;99.90
38239;DHT22;24035;48.900;9.188;2023-07-28T06:30:38;17.60;1.00
38239;DHT22;24035;48.900;9.188;2023-07-28T06:33:08;17.70;1.00
38239;DHT22;24035;48.900;9.188;2023-07-28T06:35:34;17.70;1.00
38239;DHT22;24035;48.900;9.188;2023-07-28T06:38:00;17.80;1.00
38239;DHT22;24035;48.900;9.188;2023-07-28T06:40:27;17.90;1.00
38239;DHT22;24035;48.900;9.188;2023-07-28T06:42:53;18.00;1.00
38239;DHT22;24035;48.900;9.188;2023-07-28T06:45:20;18.10;1.00
38239;DHT22;24035;48.900;9.188;2023-07-28T06:47:47;18.10;99.90
38239;DHT22;24035;48.900;9.188;2023-07-28T06:50:13;18.30;99.90
38239;DHT22;24035;48.900;9.188;2023-07-28T06:52:39;18.30;1.00
38239;DHT22;24035;48.900;9.188;2023-07-28T06:55:05;18.40;1.00
38239;DHT22;24035;48.900;9.188;2023-07-28T06:57:31;18.50;1.00
38239;DHT22;24035;48.900;9.188;2023-07-28T06:59:57;18.50;99.90
38239;DHT22;24035;48.900;9.188;2023-07-28T07:02:23;18.60;99.90
38239;DHT22;24035;48.900;9.188;2023-07-28T07:04:49;18.70;1.00
38239;DHT22;24035;48.900;9.188;2023-07-28T07:07:15;18.80;5.40
38239;DHT22;24035;48.900;9.188;2023-07-28T07:09:40;19.00;1.00
38239;DHT22;24035;48.900;9.188;2023-07-28T07:12:08;19.10;1.00
38239;DHT22;24035;48.900;9.188;2023-07-28T07:14:34;19.30;1.00
38239;DHT22;24035;48.900;9.188;2023-07-28T07:17:00;19.50;99.90
38239;DHT22;24035;48.900;9.188;2023-07-28T07:19:27;19.60;1.00
38239;DHT22;24035;48.900;9.188;2023-07-28T07:21:53;19.60;1.00
38239;DHT22;24035;48.900;9.188;2023-07-28T07:24:19;19.60;1.00
38239;DHT22;24035;48.900;9.188;2023-07-28T07:26:44;19.80;99.90
38239;DHT22;24035;48.900;9.188;2023-07-28T07:29:10;19.80;99.90
38239;DHT22;24035;48.900;9.188;2023-07-28T07:31:36;19.90;38.60
38239;DHT22;24035;48.900;9.188;2023-07-28T07:34:02;20.10;9.90
38239;DHT22;24035;48.900;9.188;2023-07-28T07:36:30;20.30;99.90
38239;DHT22;24035;48.900;9.188;2023-07-28T07:38:56;20.40;1.00
38239;DHT22;24035;48.900;9.188;2023-07-28T07:41:22;20.50;52.90
38239;DHT22;24035;48.900;9.188;2023-07-28T07:43:50;20.50;1.00
38239;DHT22;24035;48.900;9.188;2023-07-28T07:46:16;20.60;99.90
38239;DHT22;24035;48.900;9.188;2023-07-28T07:48:42;20.80;1.00
38239;DHT22;24035;48.900;9.188;2023-07-28T07:51:08;20.80;99.90
38239;DHT22;24035;48.900;9.188;2023-07-28T07:53:34;20.80;99.90
38239;DHT22;24035;48.900;9.188;2023-07-28T07:56:03;20.80;1.00
38239;DHT22;24035;48.900;9.188;2023-07-28T07:58:29;20.80;1.00
38239;DHT22;24035;48.900;9.188;2023-07-28T08:00:56;21.00;1.00
38239;DHT22;24035;48.900;9.188;2023-07-28T08:03:22;21.20;1.00
38239;DHT22;24035;48.900;9.188;2023-07-28T08:05:47;21.20;1.00
38239;DHT22;24035;48.900;9.188;2023-07-28T08:08:14;21.20;1.00
38239;DHT22;24035;48.900;9.188;2023-07-28T08:10:49;21.10;18.70
38239;DHT22;24035;48.900;9.188;2023-07-28T08:13:15;21.20;59.30
38239;DHT22;24035;48.900;9.188;2023-07-28T08:15:45;21.20;1.00
38239;DHT22;24035;48.900;9.188;2023-07-28T08:18:14;21.10;1.00
38239;DHT22;24035;48.900;9.188;2023-07-28T08:20:40;20.80;1.00
38239;DHT22;24035;48.900;9.188;2023-07-28T08:23:06;20.50;99.90
38239;DHT22;24035;48.900;9.188;2023-07-28T08:25:32;20.20;1.00
38239;DHT22;24035;48.900;9.188;2023-07-28T08:27:57;20.00;99.90
38239;DHT22;24035;48.900;9.188;2023-07-28T08:30:23;19.90;1.00
38239;DHT22;24035;48.900;9.188;2023-07-28T08:32:49;20.00;1.00
38239;DHT22;24035;48.900;9.188;2023-07-28T08:35:15;20.20;1.00
38239;DHT22;24035;48.900;9.188;2023-07-28T08:37:40;20.40;1.00
38239;DHT22;24035;48.900;9.188;2023-07-28T08:40:07;20.50;1.00
38239;DHT22;24035;48.900;9.188;2023-07-28T08:42:37;20.60;1.00
38239;DHT22;24035;48.900;9.188;2023-07-28T08:45:04;20.70;1.00
38239;DHT22;24035;48.900;9.188;2023-07-28T08:47:31;21.00;99.90
38239;DHT22;24035;48.900;9.188;2023-07-28T08:49:57;21.10;1.00
38239;DHT22;24035;48.900;9.188;2023-07-28T08:52:23;20.90;1.00
38239;DHT22;24035;48.900;9.188;2023-07-28T08:54:51;20.80;33.60
38239;DHT22;24035;48.900;9.188;2023-07-28T08:57:17;20.90;1.00
38239;DHT22;24035;48.900;9.188;2023-07-28T08:59:45;20.80;1.00
38239;DHT22;24035;48.900;9.188;2023-07-28T09:02:15;20.80;1.00
38239;DHT22;24035;48.900;9.188;2023-07-28T09:04:45;20.90;1.00
38239;DHT22;24035;48.900;9.188;2023-07-28T09:07:11;21.00;1.00
38239;DHT22;24035;48.900;9.188;2023-07-28T09:09:38;21.30;99.90
38239;DHT22;24035;48.900;9.188;2023-07-28T09:12:04;22.10;1.00
38239;DHT22;24035;48.900;9.188;2023-07-28T09:14:30;22.50;1.00
38239;DHT22;24035;48.900;9.188;2023-07-28T09:17:06;22.70;1.00
38239;DHT22;24035;48.900;9.188;2023-07-28T09:19:32;22.90;1.00
38239;DHT22;24035;48.900;9.188;2023-07-28T09:21:59;23.20;99.90
38239;DHT22;24035;48.900;9.188;2023-07-28T09:24:34;23.60;99.90
38239;DHT22;24035;48.900;9.188;2023-07-28T09:27:01;24.10;1.00
38239;DHT22;24035;48.900;9.188;2023-07-28T09:29:27;24.50;1.00
38239;DHT22;24035;48.900;9.188;2023-07-28T09:31:54;24.40;1.00
38239;DHT22;24035;48.900;9.188;2023-07-28T09:34:28;23.90;1.00
38239;DHT22;24035;48.900;9.188;2023-07-28T09:36:55;24.30;1.00
38239;DHT22;24035;48.900;9.188;2023-07-28T09:39:21;24.40;1.00
38239;DHT22;24035;48.900;9.188;2023-07-28T09:41:47;24.40;1.00
38239;DHT22;24035;48.900;9.188;2023-07-28T09:44:14;24.50;1.00
38239;DHT22;24035;48.900;9.188;2023-07-28T09:46:51;25.00;1.00
38239;DHT22;24035;48.900;9.188;2023-07-28T09:49:29;24.80;1.00
38239;DHT22;24035;48.900;9.188;2023-07-28T09:52:02;24.70;1.00
38239;DHT22;24035;48.900;9.188;2023-07-28T09:54:29;24.80;1.00
38239;DHT22;24035;48.900;9.188;2023-07-28T09:56:57;24.80;1.00
38239;DHT22;24035;48.900;9.188;2023-07-28T09:59:28;24.90;1.00
38239;DHT22;24035;48.900;9.188;2023-07-28T10:01:56;24.60;1.00
38239;DHT22;24035;48.900;9.188;2023-07-28T10:04:23;24.50;1.00
38239;DHT22;24035;48.900;9.188;2023-07-28T10:06:51;24.50;1.00
38239;DHT22;24035;48.900;9.188;2023-07-28T10:09:31;24.30;1.00
38239;DHT22;24035;48.900;9.188;2023-07-28T10:12:00;24.00;1.00
38239;DHT22;24035;48.900;9.188;2023-07-28T10:14:27;24.10;1.00
38239;DHT22;24035;48.900;9.188;2023-07-28T10:16:59;24.50;1.00
38239;DHT22;24035;48.900;9.188;2023-07-28T10:19:28;24.60;1.00
38239;DHT22;24035;48.900;9.188;2023-07-28T10:22:07;24.60;1.00
38239;DHT22;24035;48.900;9.188;2023-07-28T10:24:54;24.60;1.00
38239;DHT22;24035;48.900;9.188;2023-07-28T10:27:45;25.30;99.90
38239;DHT22;24035;48.900;9.188;2023-07-28T10:30:13;25.50;99.90
38239;DHT22;24035;48.900;9.188;2023-07-28T10:32:41;25.10;99.90
38239;DHT22;24035;48.900;9.188;2023-07-28T10:35:30;24.50;1.00
38239;DHT22;24035;48.900;9.188;2023-07-28T10:37:57;24.00;1.00
38239;DHT22;24035;48.900;9.188;2023-07-28T10:40:24;24.20;1.00
38239;DHT22;24035;48.900;9.188;2023-07-28T10:42:53;24.10;1.00
38239;DHT22;24035;48.900;9.188;2023-07-28T10:45:20;24.40;1.00
38239;DHT22;24035;48.900;9.188;2023-07-28T10:47:46;24.50;1.00
38239;DHT22;24035;48.900;9.188;2023-07-28T10:50:13;24.10;1.00
38239;DHT22;24035;48.900;9.188;2023-07-28T10:52:43;23.80;1.00
38239;DHT22;24035;48.900;9.188;2023-07-28T10:55:18;23.40;1.00
38239;DHT22;24035;48.900;9.188;2023-07-28T10:57:45;23.10;1.00
38239;DHT22;24035;48.900;9.188;2023-07-28T11:00:12;22.80;1.00
38239;DHT22;24035;48.900;9.188;2023-07-28T11:02:43;22.60;99.90
38239;DHT22;24035;48.900;9.188;2023-07-28T11:05:13;22.60;99.90
38239;DHT22;24035;48.900;9.188;2023-07-28T11:07:43;22.60;99.90
38239;DHT22;24035;48.900;9.188;2023-07-28T11:10:13;22.60;99.90
38239;DHT22;24035;48.900;9.188;2023-07-28T11:12:43;22.60;99.90
38239;DHT22;24035;48.900;9.188;2023-07-28T11:15:10;22.80;99.90
38239;DHT22;24035;48.900;9.188;2023-07-28T11:17:41;22.70;92.60
38239;DHT22;24035;48.900;9.188;2023-07-28T11:20:20;22.70;99.90
38239;DHT22;24035;48.900;9.188;2023-07-28T11:23:07;22.70;99.90
38239;DHT22;24035;48.900;9.188;2023-07-28T11:25:34;22.50;99.90
38239;DHT22;24035;48.900;9.188;2023-07-28T11:28:02;22.50;99.90
38239;DHT22;24035;48.900;9.188;2023-07-28T11:30:31;22.60;99.90
38239;DHT22;24035;48.900;9.188;2023-07-28T11:32:57;22.90;90.60
38239;DHT22;24035;48.900;9.188;2023-07-28T11:35:23;23.20;99.90
38239;DHT22;24035;48.900;9.188;2023-07-28T11:37:51;23.30;1.00
38239;DHT22;24035;48.900;9.188;2023-07-28T11:40:20;23.50;1.00
38239;DHT22;24035;48.900;9.188;2023-07-28T11:42:51;23.60;1.00
38239;DHT22;24035;48.900;9.188;2023-07-28T11:45:18;23.90;1.00
38239;DHT22;24035;48.900;9.188;2023-07-28T11:48:11;23.90;1.00
38239;DHT22;24035;48.900;9.188;2023-07-28T11:50:38;24.20;1.00
38239;DHT22;24035;48.900;9.188;2023-07-28T11:53:05;24.60;1.00
38239;DHT22;24035;48.900;9.188;2023-07-28T11:55:38;24.90;1.00
38239;DHT22;24035;48.900;9.188;2023-07-28T11:58:07;25.20;99.90
38239;DHT22;24035;48.900;9.188;2023-07-28T12:00:35;25.30;99.90
38239;DHT22;24035;48.900;9.188;2023-07-28T12:03:11;25.00;1.00
38239;DHT22;24035;48.900;9.188;2023-07-28T12:05:39;25.30;99.90
38239;DHT22;24035;48.900;9.188;2023-07-28T12:08:05;25.80;99.90
38239;DHT22;24035;48.900;9.188;2023-07-28T12:10:33;26.00;99.90
38239;DHT22;24035;48.900;9.188;2023-07-28T12:13:08;26.00;99.90
38239;DHT22;24035;48.900;9.188;2023-07-28T12:15:40;26.10;99.90
38239;DHT22;24035;48.900;9.188;2023-07-28T12:18:15;25.70;99.90
38239;DHT22;24035;48.900;9.188;2023-07-28T12:20:43;25.20;1.00
38239;DHT22;24035;48.900;9.188;2023-07-28T12:23:22;24.30;1.00
38239;DHT22;24035;48.900;9.188;2023-07-28T12:25:49;23.50;1.00
38239;DHT22;24035;48.900;9.188;2023-07-28T12:28:15;22.90;99.90
38239;DHT22;24035;48.900;9.188;2023-07-28T12:30:41;22.60;1.00
38239;DHT22;24035;48.900;9.188;2023-07-28T12:33:07;22.40;1.00
38239;DHT22;24035;48.900;9.188;2023-07-28T12:35:34;22.20;1.00
38239;DHT22;24035;48.900;9.188;2023-07-28T12:38:02;22.10;43.60
38239;DHT22;24035;48.900;9.188;2023-07-28T12:40:32;22.00;1.00
38239;DHT22;24035;48.900;9.188;2023-07-28T12:43:00;21.90;99.90
38239;DHT22;24035;48.900;9.188;2023-07-28T12:45:27;21.80;99.90
38239;DHT22;24035;48.900;9.188;2023-07-28T12:47:53;21.90;1.00
38239;DHT22;24035;48.900;9.188;2023-07-28T12:50:21;22.20;99.90
38239;DHT22;24035;48.900;9.188;2023-07-28T12:52:47;22.10;99.90
38239;DHT22;24035;48.900;9.188;2023-07-28T12:55:14;22.40;99.90
38239;DHT22;24035;48.900;9.188;2023-07-28T12:57:40;22.70;1.00
38239;DHT22;24035;48.900;9.188;2023-07-28T13:00:07;23.10;1.00
38239;DHT22;24035;48.900;9.188;2023-07-28T13:02:41;23.10;1.00
38239;DHT22;24035;48.900;9.188;2023-07-28T13:05:09;23.10;1.00
38239;DHT22;24035;48.900;9.188;2023-07-28T13:07:36;22.90;1.00
38239;DHT22;24035;48.900;9.188;2023-07-28T13:10:03;22.80;1.00
38239;DHT22;24035;48.900;9.188;2023-07-28T13:12:29;22.60;1.00
38239;DHT22;24035;48.900;9.188;2023-07-28T13:14:55;22.30;1.00
38239;DHT22;24035;48.900;9.188;2023-07-28T13:17:21;22.00;99.90
38239;DHT22;24035;48.900;9.188;2023-07-28T13:19:47;21.80;99.90
38239;DHT22;24035;48.900;9.188;2023-07-28T13:22:13;21.60;99.90
38239;DHT22;24035;48.900;9.188;2023-07-28T13:24:38;21.30;1.00
38239;DHT22;24035;48.900;9.188;2023-07-28T13:27:05;21.10;1.00
38239;DHT22;24035;48.900;9.188;2023-07-28T13:29:31;20.80;99.90
38239;DHT22;24035;48.900;9.188;2023-07-28T13:31:58;20.70;1.00
38239;DHT22;24035;48.900;9.188;2023-07-28T13:34:26;20.60;1.00
38239;DHT22;24035;48.900;9.188;2023-07-28T13:36:53;20.50;1.00
38239;DHT22;24035;48.900;9.188;2023-07-28T13:39:19;20.50;1.00
38239;DHT22;24035;48.900;9.188;2023-07-28T13:41:45;20.30;1.00
38239;DHT22;24035;48.900;9.188;2023-07-28T13:44:11;20.30;99.90
38239;DHT22;24035;48.900;9.188;2023-07-28T13:46:36;20.30;99.90
38239;DHT22;24035;48.900;9.188;2023-07-28T13:49:03;20.20;99.90
38239;DHT22;24035;48.900;9.188;2023-07-28T13:51:28;20.20;1.00
38239;DHT22;24035;48.900;9.188;2023-07-28T13:53:54;20.10;1.00
38239;DHT22;24035;48.900;9.188;2023-07-28T13:56:20;20.00;99.90
38239;DHT22;24035;48.900;9.188;2023-07-28T13:58:46;19.90;99.90
38239;DHT22;24035;48.900;9.188;2023-07-28T14:01:12;19.90;1.00
38239;DHT22;24035;48.900;9.188;2023-07-28T14:03:37;19.70;99.90
38239;DHT22;24035;48.900;9.188;2023-07-28T14:06:03;19.60;1.00
38239;DHT22;24035;48.900;9.188;2023-07-28T14:08:29;19.60;32.60
38239;DHT22;24035;48.900;9.188;2023-07-28T14:10:55;19.50;99.90
38239;DHT22;24035;48.900;9.188;2023-07-28T14:13:21;19.40;1.00
38239;DHT22;24035;48.900;9.188;2023-07-28T14:15:47;19.30;1.00
38239;DHT22;24035;48.900;9.188;2023-07-28T14:18:13;19.30;99.90
38239;DHT22;24035;48.900;9.188;2023-07-28T14:20:39;19.30;99.90
38239;DHT22;24035;48.900;9.188;2023-07-28T14:23:26;19.30;1.00
38239;DHT22;24035;48.900;9.188;2023-07-28T14:25:52;19.30;1.00
38239;DHT22;24035;48.900;9.188;2023-07-28T14:28:18;19.30;1.00
38239;DHT22;24035;48.900;9.188;2023-07-28T14:30:44;19.10;1.00
38239;DHT22;24035;48.900;9.188;2023-07-28T14:33:14;19.10;99.90
38239;DHT22;24035;48.900;9.188;2023-07-28T14:35:40;19.20;1.00
38239;DHT22;24035;48.900;9.188;2023-07-28T14:38:06;19.30;1.00
38239;DHT22;24035;48.900;9.188;2023-07-28T14:40:32;19.40;87.20
38239;DHT22;24035;48.900;9.188;2023-07-28T14:42:58;19.50;1.00
38239;DHT22;24035;48.900;9.188;2023-07-28T14:45:24;19.60;1.00
38239;DHT22;24035;48.900;9.188;2023-07-28T14:47:49;19.70;1.00
38239;DHT22;24035;48.900;9.188;2023-07-28T14:50:15;19.90;99.90
38239;DHT22;24035;48.900;9.188;2023-07-28T14:52:41;20.00;1.00
38239;DHT22;24035;48.900;9.188;2023-07-28T14:55:07;20.00;1.00
38239;DHT22;24035;48.900;9.188;2023-07-28T14:57:32;20.00;1.00
38239;DHT22;24035;48.900;9.188;2023-07-28T14:59:58;20.00;1.00
38239;DHT22;24035;48.900;9.188;2023-07-28T15:02:24;19.80;1.00
38239;DHT22;24035;48.900;9.188;2023-07-28T15:04:50;19.70;99.90
38239;DHT22;24035;48.900;9.188;2023-07-28T15:07:16;19.70;1.00
38239;DHT22;24035;48.900;9.188;2023-07-28T15:09:44;19.90;99.90
38239;DHT22;24035;48.900;9.188;2023-07-28T15:12:10;19.90;1.00
38239;DHT22;24035;48.900;9.188;2023-07-28T15:14:36;20.00;35.30
38239;DHT22;24035;48.900;9.188;2023-07-28T15:17:01;20.10;99.90
38239;DHT22;24035;48.900;9.188;2023-07-28T15:19:27;20.30;99.90
38239;DHT22;24035;48.900;9.188;2023-07-28T15:21:53;20.30;99.90
38239;DHT22;24035;48.900;9.188;2023-07-28T15:24:18;20.50;99.90
38239;DHT22;24035;48.900;9.188;2023-07-28T15:26:47;20.60;1.00
38239;DHT22;24035;48.900;9.188;2023-07-28T15:29:15;20.80;1.00
38239;DHT22;24035;48.900;9.188;2023-07-28T15:31:41;20.90;1.00
38239;DHT22;24035;48.900;9.188;2023-07-28T15:34:07;20.90;1.00
38239;DHT22;24035;48.900;9.188;2023-07-28T15:36:33;20.90;99.90
38239;DHT22;24035;48.900;9.188;2023-07-28T15:38:59;21.00;99.90
38239;DHT22;24035;48.900;9.188;2023-07-28T15:41:25;21.00;1.00